Time;durP1;ratioP1;P1;durP2;ratioP2;P2;SDS_P1;SDS_P2;PMS_P1;PMS_P2;Temp;Humidity;BMP_temperature;BMP_pressure;BME280_temperature;BME280_humidity;BME280_pressure;Samples;Min_cycle;Max_cycle;Signal;HPM_P1;HPM_P2
2023/06/11 00:02:41;;;;;;;19.63;12.07;;;;;;;19.51;90.32;99161.38;5123410;27;20047;-86
2023/06/11 00:05:28;;;;;;;18.95;11.93;;;;;;;19.54;90.77;99155.53;5124333;27;20104;-86
2023/06/11 00:08:13;;;;;;;21.45;11.65;;;;;;;20.05;89.55;99156.28;5127627;27;20046;-84
2023/06/11 00:10:57;;;;;;;19.77;14.25;;;;;;;19.88;90.26;99145.72;5112074;27;20277;-82
2023/06/11 00:13:41;;;;;;;25.73;15.85;;;;;;;19.58;92.83;99149.72;5107946;27;20049;-84
2023/06/11 00:16:25;;;;;;;29.75;15.05;;;;;;;19.80;93.02;99144.34;5107743;27;20038;-85
2023/06/11 00:19:09;;;;;;;32.03;14.43;;;;;;;19.87;93.26;99149.47;5124028;27;20034;-85
2023/06/11 00:21:56;;;;;;;26.65;14.73;;;;;;;20.01;92.07;99150.66;5121021;27;20104;-85
2023/06/11 00:24:40;;;;;;;22.63;13.88;;;;;;;19.91;92.14;99150.53;5126849;27;20104;-85
2023/06/11 00:27:24;;;;;;;26.65;15.25;;;;;;;19.81;93.06;99148.59;5124390;27;20042;-85
2023/06/11 00:30:08;;;;;;;28.35;16.25;;;;;;;19.65;93.01;99142.31;5122791;27;20038;-85
2023/06/11 00:32:53;;;;;;;23.33;15.88;;;;;;;19.62;93.20;99143.63;5104178;27;20508;-83
2023/06/11 00:35:37;;;;;;;24.13;15.52;;;;;;;19.65;93.23;99143.13;5121636;27;20084;-82
2023/06/11 00:38:22;;;;;;;25.02;14.75;;;;;;;19.73;93.31;99141.06;5119486;27;20082;-82
2023/06/11 00:41:06;;;;;;;24.98;15.73;;;;;;;19.49;94.04;99134.19;5122739;27;20101;-85
2023/06/11 00:43:56;;;;;;;28.88;15.60;;;;;;;19.24;95.55;99146.16;5125162;27;20595;-84
2023/06/11 00:46:41;;;;;;;31.38;15.43;;;;;;;19.33;95.50;99143.88;5122493;27;20148;-84
2023/06/11 00:49:26;;;;;;;28.63;15.05;;;;;;;19.40;94.57;99138.34;5122673;27;20049;-84
2023/06/11 00:52:14;;;;;;;26.92;14.27;;;;;;;19.40;94.29;99146.34;5123723;27;20049;-85
2023/06/11 00:54:59;;;;;;;26.10;14.27;;;;;;;19.22;93.72;99140.28;5122728;27;20539;-85
2023/06/11 00:57:43;;;;;;;24.00;14.75;;;;;;;19.31;93.47;99138.00;5126236;27;20137;-85
2023/06/11 01:00:27;;;;;;;34.53;15.27;;;;;;;19.04;94.14;99143.25;5123574;27;20038;-86
2023/06/11 01:03:17;;;;;;;26.77;14.32;;;;;;;19.26;93.87;99144.09;5124361;27;20393;-84
2023/06/11 01:06:17;;;;;;;25.05;15.07;;;;;;;19.11;93.80;99133.25;5122978;27;20141;-86
2023/06/11 01:09:03;;;;;;;21.80;13.75;;;;;;;19.11;93.80;99133.25;5121950;27;20095;-85
2023/06/11 01:11:53;;;;;;;28.50;14.65;;;;;;;19.08;93.87;99133.75;5127118;27;20396;-84
2023/06/11 01:14:38;;;;;;;23.60;13.80;;;;;;;19.06;93.70;99141.16;5110159;27;20089;-77
2023/06/11 01:17:47;;;;;;;25.55;14.38;;;;;;;19.19;93.29;99127.50;5128672;27;20046;-78
2023/06/11 01:20:37;;;;;;;28.50;14.65;;;;;;;19.06;93.71;99125.19;5110776;27;20184;-78
2023/06/11 01:23:33;;;;;;;25.58;14.68;;;;;;;18.94;93.19;99133.28;5122650;27;20167;-78
2023/06/11 01:26:23;;;;;;;31.40;14.27;;;;;;;18.83;94.18;99135.00;5125000;27;20042;-78
2023/06/11 01:29:11;;;;;;;28.00;13.98;;;;;;;18.82;94.04;99117.44;5126085;27;20033;-78
2023/06/11 01:31:58;;;;;;;24.38;14.32;;;;;;;18.63;94.93;99122.25;5108010;27;20042;-78
2023/06/11 01:34:42;;;;;;;28.73;15.98;;;;;;;18.68;95.41;99128.47;5128615;27;20034;-78
2023/06/11 01:37:29;;;;;;;28.00;15.90;;;;;;;18.51;96.41;99125.03;5118550;27;20132;-78
2023/06/11 01:40:14;;;;;;;33.03;16.42;;;;;;;18.60;96.47;99115.56;5124207;27;20058;-78
2023/06/11 01:42:58;;;;;;;30.65;15.98;;;;;;;18.35;97.87;99111.53;5111163;27;20038;-79
2023/06/11 01:45:43;;;;;;;29.08;16.35;;;;;;;18.36;98.81;99121.09;5119353;27;20479;-78
2023/06/11 01:48:27;;;;;;;33.83;16.05;;;;;;;18.69;97.35;99119.44;5105689;27;20545;-77
2023/06/11 01:51:13;;;;;;;30.50;16.52;;;;;;;18.54;98.02;99122.66;5121485;27;20115;-79
2023/06/11 01:53:59;;;;;;;30.17;15.02;;;;;;;18.51;98.42;99114.41;5129470;27;20049;-78
2023/06/11 01:56:43;;;;;;;25.50;15.68;;;;;;;18.53;99.08;99122.94;5120553;27;20041;-78
2023/06/11 01:59:27;;;;;;;28.58;17.17;;;;;;;18.38;99.20;99100.41;5120323;27;20041;-78
2023/06/11 02:02:12;;;;;;;27.02;15.73;;;;;;;18.46;99.24;99123.09;5107856;27;20073;-78
2023/06/11 02:04:56;;;;;;;25.20;15.25;;;;;;;18.44;99.91;99109.25;5112748;27;20038;-80
2023/06/11 02:07:40;;;;;;;34.42;17.05;;;;;;;18.56;99.14;99106.50;5121003;27;20046;-79
2023/06/11 02:10:24;;;;;;;30.35;15.40;;;;;;;18.51;99.72;99101.13;5126270;27;20042;-78
2023/06/11 02:13:09;;;;;;;29.65;17.25;;;;;;;18.55;99.90;99107.53;5118822;27;20038;-78
2023/06/11 02:15:53;;;;;;;25.27;15.70;;;;;;;18.68;99.68;99109.84;5122714;27;20054;-78
2023/06/11 02:18:37;;;;;;;29.15;15.65;;;;;;;18.52;99.99;99092.88;5124512;27;20045;-78
2023/06/11 02:21:21;;;;;;;29.95;16.95;;;;;;;18.38;100.00;99108.38;5116656;27;20042;-77
2023/06/11 02:24:05;;;;;;;29.85;17.13;;;;;;;18.52;100.00;99110.69;5104155;27;20096;-78
2023/06/11 02:26:49;;;;;;;25.50;15.32;;;;;;;18.37;100.00;99101.44;5121451;27;20042;-78
2023/06/11 02:29:33;;;;;;;36.72;16.13;;;;;;;18.13;100.00;99104.31;5126186;27;20492;-77
2023/06/11 02:32:17;;;;;;;31.27;16.60;;;;;;;17.81;100.00;99080.94;5123415;27;20050;-78
2023/06/11 02:35:02;;;;;;;32.85;16.23;;;;;;;18.14;100.00;99094.47;5120611;27;20123;-78
2023/06/11 02:37:46;;;;;;;28.52;15.10;;;;;;;18.27;100.00;99104.78;5128234;27;20038;-78
2023/06/11 02:40:30;;;;;;;28.65;15.82;;;;;;;18.27;100.00;99109.25;5122078;27;20130;-78
2023/06/11 02:43:14;;;;;;;29.05;15.50;;;;;;;18.25;100.00;99101.56;5114539;28;20088;-78
2023/06/11 02:45:58;;;;;;;32.00;16.20;;;;;;;18.13;100.00;99088.38;5123102;27;20037;-78
2023/06/11 02:48:42;;;;;;;32.05;17.27;;;;;;;17.90;100.00;99086.66;5120955;27;20038;-78
2023/06/11 02:51:26;;;;;;;26.58;16.05;;;;;;;18.12;100.00;99097.38;5115588;27;20042;-78
2023/06/11 02:54:10;;;;;;;31.63;16.48;;;;;;;18.10;100.00;99094.16;5119976;27;20503;-78
2023/06/11 02:56:54;;;;;;;29.92;16.27;;;;;;;17.95;100.00;99091.25;5117688;27;20043;-78
2023/06/11 02:59:37;;;;;;;32.22;17.80;;;;;;;18.03;100.00;99088.19;5123695;28;20470;-78
2023/06/11 03:02:21;;;;;;;30.02;16.77;;;;;;;17.98;100.00;99085.44;5123730;28;20122;-78
2023/06/11 03:05:06;;;;;;;39.33;17.45;;;;;;;18.04;100.00;99073.09;5108671;28;20050;-78
2023/06/11 03:07:50;;;;;;;37.10;15.27;;;;;;;17.90;100.00;99083.22;5119889;28;20053;-77
2023/06/11 03:10:33;;;;;;;33.70;17.45;;;;;;;17.86;100.00;99085.53;5125072;28;20046;-77
2023/06/11 03:13:17;;;;;;;32.17;15.98;;;;;;;17.82;100.00;99071.94;5119137;28;20050;-77
2023/06/11 03:16:01;;;;;;;33.97;15.25;;;;;;;17.92;100.00;99075.81;5123512;28;20405;-77
2023/06/11 03:18:45;;;;;;;35.55;15.55;;;;;;;17.90;100.00;99088.53;5104472;28;20096;-77
2023/06/11 03:21:30;;;;;;;39.10;16.67;;;;;;;17.75;100.00;99081.91;5119133;28;20062;-78
2023/06/11 03:24:14;;;;;;;35.50;16.45;;;;;;;17.98;100.00;99090.75;5117747;28;20115;-76
2023/06/11 03:26:58;;;;;;;32.88;16.60;;;;;;;17.85;100.00;99086.56;5121614;28;20054;-78
2023/06/11 03:29:42;;;;;;;32.25;16.83;;;;;;;17.79;100.00;99083.03;5119101;28;20139;-77
2023/06/11 03:32:26;;;;;;;30.35;16.13;;;;;;;18.03;100.00;99085.53;5124339;28;20054;-77
2023/06/11 03:35:11;;;;;;;43.50;16.65;;;;;;;17.90;100.00;99084.00;5103259;28;20543;-78
2023/06/11 03:37:55;;;;;;;33.25;17.75;;;;;;;17.41;100.00;99076.56;5118226;28;20042;-79
2023/06/11 03:40:39;;;;;;;34.35;17.58;;;;;;;17.69;100.00;99085.53;5119751;28;20051;-77
2023/06/11 03:43:22;;;;;;;33.33;18.55;;;;;;;17.42;100.00;99083.47;5117770;28;20062;-78
2023/06/11 03:46:07;;;;;;;30.58;18.23;;;;;;;17.53;100.00;99084.44;5127164;27;20057;-78
2023/06/11 03:48:50;;;;;;;35.75;19.15;;;;;;;17.63;100.00;99097.09;5124860;27;20160;-78
2023/06/11 03:51:35;;;;;;;28.45;16.85;;;;;;;17.76;100.00;99080.88;5122213;27;20049;-78
2023/06/11 03:54:19;;;;;;;31.52;18.17;;;;;;;17.79;100.00;99082.25;5112929;27;20051;-79
2023/06/11 03:57:03;;;;;;;;;;;;;;;17.65;100.00;99090.50;5110347;27;20042;-78
2023/06/11 03:59:47;;;;;;;33.58;17.52;;;;;;;17.37;100.00;99078.09;5108487;27;19936;-78
2023/06/11 04:02:31;;;;;;;39.92;18.17;;;;;;;17.35;100.00;99073.00;5128306;27;20395;-79
2023/06/11 04:05:15;;;;;;;34.83;17.30;;;;;;;17.39;100.00;99078.66;5121847;27;20047;-80
2023/06/11 04:07:59;;;;;;;31.15;17.95;;;;;;;17.46;100.00;99078.50;5111757;27;20030;-78
2023/06/11 04:10:43;;;;;;;36.00;18.05;;;;;;;17.35;100.00;99074.88;5126412;27;20081;-78
2023/06/11 04:13:27;;;;;;;38.10;17.27;;;;;;;17.36;100.00;99068.50;5113780;27;20161;-78
2023/06/11 04:16:11;;;;;;;41.20;19.15;;;;;;;17.45;100.00;99077.69;5128717;27;20046;-78
2023/06/11 04:18:55;;;;;;;38.33;18.77;;;;;;;17.49;100.00;99068.22;5119512;27;20104;-78
2023/06/11 04:21:39;;;;;;;30.88;17.10;;;;;;;17.56;100.00;99076.81;5122711;27;20112;-77
2023/06/11 04:24:23;;;;;;;44.42;18.42;;;;;;;17.60;100.00;99073.69;5124070;27;20111;-77
2023/06/11 04:27:07;;;;;;;34.03;17.75;;;;;;;17.56;100.00;99074.16;5123263;27;20089;-77
2023/06/11 04:29:56;;;;;;;34.28;16.88;;;;;;;17.42;100.00;99064.91;5125412;27;20073;-77
2023/06/11 04:32:43;;;;;;;37.50;19.20;;;;;;;17.40;100.00;99074.94;5107775;27;20182;-78
2023/06/11 04:35:28;;;;;;;36.88;19.92;;;;;;;17.25;100.00;99078.94;5123160;27;20115;-78
2023/06/11 04:38:12;;;;;;;34.72;18.15;;;;;;;17.43;100.00;99071.81;5105616;27;20077;-78
2023/06/11 04:40:57;;;;;;;44.90;20.23;;;;;;;17.18;100.00;99064.19;5125772;27;20046;-79
2023/06/11 04:43:41;;;;;;;44.03;20.33;;;;;;;17.17;100.00;99074.00;5107158;27;20038;-78
2023/06/11 04:46:24;;;;;;;;;;;;;;;17.26;100.00;99077.88;5109356;27;20569;-79
2023/06/11 04:49:09;;;;;;;35.53;18.70;;;;;;;17.04;100.00;99077.75;5125266;27;20024;-78
2023/06/11 04:51:53;;;;;;;46.33;19.75;;;;;;;16.79;100.00;99081.47;5123599;27;20034;-79
2023/06/11 04:54:37;;;;;;;40.80;20.90;;;;;;;16.81;100.00;99087.38;5128145;27;20519;-80
2023/06/11 04:57:23;;;;;;;35.22;19.65;;;;;;;16.91;100.00;99092.06;5108106;27;20535;-78
2023/06/11 05:00:10;;;;;;;38.20;20.75;;;;;;;16.73;100.00;99081.63;5122603;27;20175;-78
2023/06/11 05:02:56;;;;;;;40.35;20.83;;;;;;;16.97;100.00;99077.03;5108901;27;20132;-79
2023/06/11 05:05:40;;;;;;;40.47;20.60;;;;;;;16.75;100.00;99074.25;5126583;27;20045;-79
2023/06/11 05:08:25;;;;;;;38.78;23.10;;;;;;;16.79;100.00;99081.47;5117988;27;20047;-79
2023/06/11 05:11:09;;;;;;;46.35;20.85;;;;;;;16.80;100.00;99072.50;5121257;27;20047;-79
2023/06/11 05:13:53;;;;;;;35.30;20.30;;;;;;;16.59;100.00;99081.88;5110139;27;20042;-79
2023/06/11 05:16:39;;;;;;;42.78;21.20;;;;;;;16.94;100.00;99069.56;5119097;27;20059;-78
2023/06/11 05:19:24;;;;;;;35.97;20.13;;;;;;;17.03;100.00;99080.63;5122462;27;20127;-79
2023/06/11 05:22:07;;;;;;;43.17;22.30;;;;;;;17.01;100.00;99077.41;5118921;27;20112;-78
2023/06/11 05:24:52;;;;;;;48.72;22.50;;;;;;;16.88;100.00;99079.25;5123984;27;20111;-78
2023/06/11 05:27:36;;;;;;;38.85;20.75;;;;;;;16.88;100.00;99079.25;5127448;27;20076;-78
2023/06/11 05:30:24;;;;;;;39.17;20.42;;;;;;;17.01;100.00;99064.16;5108079;27;20511;-79
2023/06/11 05:33:09;;;;;;;42.40;21.33;;;;;;;16.57;100.00;99076.00;5122908;27;20054;-77
2023/06/11 05:35:53;;;;;;;34.55;20.70;;;;;;;16.86;100.00;99062.78;5114576;27;20062;-77
2023/06/11 05:38:37;;;;;;;45.72;21.77;;;;;;;17.00;100.00;99066.03;5122939;27;20050;-78
2023/06/11 05:41:22;;;;;;;45.42;22.05;;;;;;;17.05;100.00;99068.75;5108923;27;20115;-78
2023/06/11 05:44:07;;;;;;;35.45;20.55;;;;;;;16.84;100.00;99064.88;5121607;27;20047;-78
2023/06/11 05:46:51;;;;;;;36.83;21.35;;;;;;;17.22;100.00;99079.41;5125669;27;20038;-78
2023/06/11 05:49:35;;;;;;;35.13;20.08;;;;;;;17.33;100.00;99069.78;5118586;27;20114;-79
2023/06/11 05:52:19;;;;;;;44.03;20.42;;;;;;;17.30;100.00;99072.13;5122573;27;20029;-80
2023/06/11 05:55:04;;;;;;;36.28;20.38;;;;;;;17.16;100.00;99069.75;5124605;27;20092;-79
2023/06/11 05:57:48;;;;;;;37.08;19.55;;;;;;;17.38;100.00;99067.22;5115551;27;20042;-79
2023/06/11 06:00:32;;;;;;;37.10;21.00;;;;;;;17.43;100.00;99074.47;5102339;27;20046;-80
2023/06/11 06:03:16;;;;;;;36.70;19.00;;;;;;;18.05;100.00;99080.78;5123141;27;20050;-80
2023/06/11 06:06:01;;;;;;;40.13;17.95;;;;;;;18.25;100.00;99071.50;5109745;27;20038;-78
2023/06/11 06:08:45;;;;;;;37.10;19.27;;;;;;;18.55;100.00;99068.47;5124408;27;20055;-77
2023/06/11 06:11:29;;;;;;;41.10;18.13;;;;;;;18.65;100.00;99073.09;5122005;27;20042;-77
2023/06/11 06:14:13;;;;;;;38.15;18.92;;;;;;;18.82;100.00;99053.63;5121247;27;20409;-77
2023/06/11 06:16:57;;;;;;;37.28;18.30;;;;;;;18.39;100.00;99062.16;5120951;27;20097;-77
2023/06/11 06:19:42;;;;;;;36.50;18.27;;;;;;;18.54;100.00;99077.47;5119564;27;20070;-77
2023/06/11 06:22:26;;;;;;;41.25;18.73;;;;;;;17.92;100.00;99073.16;5108281;27;20057;-77
2023/06/11 06:25:15;;;;;;;35.88;17.45;;;;;;;17.93;100.00;99067.56;5102161;27;20464;-77
2023/06/11 06:27:59;;;;;;;31.00;16.90;;;;;;;18.66;100.00;99066.72;5101496;27;20459;-78
2023/06/11 06:30:43;;;;;;;31.70;16.77;;;;;;;19.09;100.00;99060.88;5120849;27;20118;-77
2023/06/11 06:33:30;;;;;;;33.67;17.13;;;;;;;19.04;100.00;99080.25;5117786;27;20188;-77
2023/06/11 06:36:14;;;;;;;31.50;16.35;;;;;;;18.84;100.00;99060.31;5120695;27;20074;-79
2023/06/11 06:39:00;;;;;;;32.95;16.08;;;;;;;19.40;100.00;99071.81;5124229;27;20159;-77
2023/06/11 06:41:44;;;;;;;33.72;15.20;;;;;;;19.69;100.00;99088.31;5117935;27;20050;-80
2023/06/11 06:44:28;;;;;;;32.88;15.88;;;;;;;20.10;100.00;99082.53;5126944;27;20080;-81
2023/06/11 06:47:14;;;;;;;33.97;15.25;;;;;;;20.12;100.00;99091.06;5126946;27;20055;-80
2023/06/11 06:49:58;;;;;;;30.48;14.88;;;;;;;19.79;100.00;99090.25;5122065;27;20038;-79
2023/06/11 06:52:42;;;;;;;30.60;13.23;;;;;;;20.36;100.00;99085.34;5123830;27;20057;-80
2023/06/11 06:55:26;;;;;;;31.75;14.57;;;;;;;20.41;100.00;99096.00;5112557;27;20038;-79
2023/06/11 06:58:10;;;;;;;30.80;14.15;;;;;;;20.42;100.00;99080.84;5121152;27;20059;-80
2023/06/11 07:00:55;;;;;;;29.10;12.57;;;;;;;20.87;100.00;99073.34;5115588;28;20062;-80
2023/06/11 07:03:41;;;;;;;22.45;12.70;;;;;;;20.98;100.00;99082.94;5105173;28;20043;-79
2023/06/11 07:06:25;;;;;;;25.70;12.60;;;;;;;20.47;100.00;99083.53;5120541;28;20058;-78
2023/06/11 07:09:09;;;;;;;22.15;12.15;;;;;;;21.23;100.00;99085.97;5101268;28;20096;-78
2023/06/11 07:11:53;;;;;;;25.10;12.50;;;;;;;21.63;100.00;99091.63;5125903;28;20124;-78
2023/06/11 07:14:37;;;;;;;22.55;13.38;;;;;;;20.97;100.00;99096.56;5120618;27;20450;-77
2023/06/11 07:17:22;;;;;;;26.98;12.57;;;;;;;21.19;100.00;99093.69;5116610;28;20066;-76
2023/06/11 07:20:07;;;;;;;25.52;12.48;;;;;;;20.62;100.00;99064.13;5122358;27;20540;-76
2023/06/11 07:22:51;;;;;;;36.15;13.93;;;;;;;20.69;100.00;99074.56;5127235;27;20388;-77
2023/06/11 07:25:37;;;;;;;27.63;12.07;;;;;;;21.22;100.00;99063.81;5123716;27;20046;-78
2023/06/11 07:28:22;;;;;;;24.80;11.95;;;;;;;21.32;100.00;99084.38;5129100;27;20439;-77
2023/06/11 07:31:06;;;;;;;25.58;12.07;;;;;;;20.94;100.00;99081.88;5123681;27;20045;-77
2023/06/11 07:33:50;;;;;;;22.35;12.43;;;;;;;20.65;100.00;99078.81;5105789;28;20385;-78
2023/06/11 07:36:35;;;;;;;23.77;11.68;;;;;;;20.52;100.00;99070.22;5109852;27;20061;-76
2023/06/11 07:39:19;;;;;;;34.85;12.65;;;;;;;20.66;100.00;99083.91;5122578;27;20436;-77
2023/06/11 07:42:05;;;;;;;32.85;12.70;;;;;;;20.67;100.00;99077.50;5109901;27;20051;-77
2023/06/11 07:44:49;;;;;;;25.02;12.95;;;;;;;20.79;100.00;99084.47;5111086;27;20107;-77
2023/06/11 07:47:32;;;;;;;25.17;12.70;;;;;;;20.60;100.00;99070.78;5125389;27;20037;-77
2023/06/11 07:50:17;;;;;;;26.35;13.73;;;;;;;20.38;100.00;99074.44;5124468;27;20041;-77
2023/06/11 07:53:01;;;;;;;29.15;14.40;;;;;;;20.92;100.00;99086.69;5124641;27;20513;-77
2023/06/11 07:55:45;;;;;;;29.65;13.07;;;;;;;20.91;100.00;99076.25;5127144;27;20046;-76
2023/06/11 07:58:29;;;;;;;24.50;12.32;;;;;;;20.91;100.00;99086.94;5121386;27;20181;-76
2023/06/11 08:01:13;;;;;;;27.42;13.68;;;;;;;20.97;100.00;99092.03;5121814;27;20505;-78
2023/06/11 08:03:57;;;;;;;25.73;13.75;;;;;;;20.94;100.00;99086.44;5126527;27;20042;-77
2023/06/11 08:06:40;;;;;;;27.40;13.27;;;;;;;21.28;100.00;99080.63;5126950;27;20046;-78
2023/06/11 08:09:24;;;;;;;24.85;13.23;;;;;;;21.55;100.00;99069.72;5133114;27;20412;-78
2023/06/11 08:12:09;;;;;;;23.63;12.43;;;;;;;21.68;100.00;99083.63;5125193;27;20123;-79
2023/06/11 08:14:53;;;;;;;29.25;12.55;;;;;;;21.45;100.00;99077.72;5098028;27;20057;-78
2023/06/11 08:17:38;;;;;;;30.40;13.40;;;;;;;21.43;100.00;99082.53;5116470;27;20047;-78
2023/06/11 08:20:22;;;;;;;21.38;12.20;;;;;;;21.79;100.00;99074.53;5111994;27;20171;-77
2023/06/11 08:23:07;;;;;;;24.48;12.10;;;;;;;22.04;100.00;99070.25;5124516;27;20104;-78
2023/06/11 08:25:51;;;;;;;26.05;11.70;;;;;;;22.04;100.00;99067.59;5122631;27;20112;-78
2023/06/11 08:28:36;;;;;;;20.45;11.25;;;;;;;22.04;100.00;99067.59;5129259;27;20043;-80
2023/06/11 08:31:20;;;;;;;26.75;11.73;;;;;;;21.80;100.00;99086.81;5125535;27;20045;-79
2023/06/11 08:34:05;;;;;;;27.58;12.40;;;;;;;21.92;100.00;99061.72;5127098;27;20503;-78
2023/06/11 08:36:49;;;;;;;26.05;12.15;;;;;;;22.34;100.00;99068.56;5121323;27;20120;-80
2023/06/11 08:39:33;;;;;;;18.48;11.18;;;;;;;22.03;100.00;99078.53;5123336;27;20069;-79
2023/06/11 08:42:17;;;;;;;19.33;10.45;;;;;;;22.24;100.00;99079.31;5125094;27;20045;-80
2023/06/11 08:45:01;;;;;;;21.88;12.75;;;;;;;21.65;100.00;99078.84;5126413;27;20131;-80
2023/06/11 08:47:52;;;;;;;26.85;13.52;;;;;;;21.40;100.00;99065.16;5120019;27;20042;-80
2023/06/11 08:50:37;;;;;;;19.83;10.45;;;;;;;22.09;100.00;99067.56;5125597;27;20118;-80
2023/06/11 08:53:21;;;;;;;24.08;12.50;;;;;;;22.26;100.00;99071.81;5125005;27;20050;-79
2023/06/11 08:56:06;;;;;;;25.10;12.38;;;;;;;22.02;100.00;99087.63;5119845;27;20088;-79
2023/06/11 08:58:50;;;;;;;25.40;12.38;;;;;;;22.27;100.00;99073.41;5123903;27;20119;-79
2023/06/11 09:01:34;;;;;;;24.63;11.48;;;;;;;22.30;100.00;99070.19;5124724;27;20050;-78
2023/06/11 09:04:19;;;;;;;22.00;12.55;;;;;;;22.24;100.00;99068.63;5116488;27;20442;-78
2023/06/11 09:07:03;;;;;;;19.63;11.35;;;;;;;22.53;99.88;99074.16;5125607;27;20058;-79
2023/06/11 09:09:52;;;;;;;25.15;11.77;;;;;;;22.64;100.00;99074.94;5124783;27;20429;-78
2023/06/11 09:12:36;;;;;;;20.95;12.30;;;;;;;22.53;100.00;99066.16;5126159;27;20046;-77
2023/06/11 09:15:24;;;;;;;21.00;12.05;;;;;;;22.25;100.00;99075.56;5117354;27;20046;-77
2023/06/11 09:18:08;;;;;;;25.33;12.15;;;;;;;22.58;100.00;99067.19;5122789;27;20038;-77
2023/06/11 09:20:54;;;;;;;24.52;12.60;;;;;;;22.72;100.00;99056.69;5123969;27;20087;-77
2023/06/11 09:23:39;;;;;;;25.20;12.50;;;;;;;22.61;100.00;99062.09;5122827;27;20093;-75
2023/06/11 09:26:28;;;;;;;24.40;11.95;;;;;;;22.76;100.00;99060.41;5124765;27;20046;-77
2023/06/11 09:29:11;;;;;;;21.95;11.90;;;;;;;23.23;100.00;99072.47;5120480;27;20042;-76
2023/06/11 09:32:10;;;;;;;20.45;11.90;;;;;;;23.03;98.85;99067.25;5107219;27;20559;-78
2023/06/11 09:34:58;;;;;;;19.00;11.25;;;;;;;23.31;100.00;99063.09;5116416;27;20085;-78
2023/06/11 09:37:47;;;;;;;21.35;13.45;;;;;;;23.04;99.82;99048.22;5100690;27;20054;-79
2023/06/11 09:40:35;;;;;;;22.55;12.32;;;;;;;23.14;100.00;99068.78;5118333;27;20080;-77
2023/06/11 09:43:26;;;;;;;23.88;13.20;;;;;;;23.45;98.32;99063.25;5107245;28;20079;-79
2023/06/11 09:46:11;;;;;;;22.33;13.38;;;;;;;23.53;98.03;99049.25;5121005;27;20160;-78
2023/06/11 09:48:55;;;;;;;20.77;13.95;;;;;;;23.72;96.32;99061.94;5099961;28;20120;-80
2023/06/11 09:51:40;;;;;;;24.58;12.50;;;;;;;23.88;95.47;99065.31;5112096;28;20108;-78
2023/06/11 09:54:24;;;;;;;25.25;12.35;;;;;;;23.74;96.70;99053.66;5109651;27;20092;-79
2023/06/11 09:57:09;;;;;;;24.42;14.15;;;;;;;23.60;98.50;99072.25;5115725;27;20550;-78
2023/06/11 09:59:53;;;;;;;23.38;13.32;;;;;;;23.73;97.74;99068.91;5117191;27;20054;-79
2023/06/11 10:02:41;;;;;;;25.10;14.40;;;;;;;23.79;94.93;99067.81;5114239;28;20050;-78
2023/06/11 10:05:26;;;;;;;20.08;12.85;;;;;;;24.12;95.63;99074.47;5114378;28;20055;-79
2023/06/11 10:08:27;;;;;;;21.20;13.75;;;;;;;24.10;94.44;99072.88;5124459;27;20042;-79
2023/06/11 10:11:11;;;;;;;22.95;14.05;;;;;;;24.41;93.01;99068.28;5109426;28;20038;-79
2023/06/11 10:14:01;;;;;;;26.00;13.18;;;;;;;24.58;92.93;99065.94;5107708;27;20131;-79
2023/06/11 10:16:51;;;;;;;23.65;13.98;;;;;;;24.87;91.86;99067.75;5127125;27;20469;-79
2023/06/11 10:19:36;;;;;;;25.35;13.65;;;;;;;24.89;91.49;99075.50;5132785;27;20092;-79
2023/06/11 10:22:33;;;;;;;24.23;12.88;;;;;;;24.81;90.38;99075.06;5128479;27;20062;-79
2023/06/11 10:25:17;;;;;;;25.80;14.20;;;;;;;24.65;90.68;99070.94;5133173;27;20046;-79
2023/06/11 10:28:00;;;;;;;24.40;12.93;;;;;;;24.89;92.01;99059.41;5123836;27;20072;-79
2023/06/11 10:30:54;;;;;;;20.55;13.13;;;;;;;24.96;91.27;99065.22;5120854;27;20044;-79
2023/06/11 10:33:45;;;;;;;;;;;;;;;25.43;91.56;99075.25;5115953;27;20043;-79
2023/06/11 10:36:40;;;;;;;19.63;12.45;;;;;;;25.05;89.99;99078.78;5116110;27;19941;-78
2023/06/11 10:39:25;;;;;;;22.38;12.90;;;;;;;25.28;89.19;99076.31;5098199;28;20096;-79
2023/06/11 10:42:10;;;;;;;20.38;11.77;;;;;;;25.59;90.67;99071.28;5123797;27;20135;-80
2023/06/11 10:44:58;;;;;;;25.90;13.93;;;;;;;24.80;92.19;99080.72;5121197;27;20050;-78
2023/06/11 10:47:46;;;;;;;24.20;14.30;;;;;;;24.27;92.86;99073.50;5127387;27;20042;-78
2023/06/11 10:50:31;;;;;;;33.83;14.27;;;;;;;24.91;91.94;99065.28;5123369;27;20434;-78
2023/06/11 10:53:15;;;;;;;24.30;12.88;;;;;;;25.24;90.30;99076.88;5124582;27;20041;-79
2023/06/11 10:56:00;;;;;;;18.75;11.18;;;;;;;25.78;88.09;99063.19;5124286;27;20576;-78
2023/06/11 10:58:49;;;;;;;22.65;13.82;;;;;;;25.88;86.28;99064.06;5126209;27;20051;-79
2023/06/11 11:01:33;;;;;;;23.42;12.73;;;;;;;26.03;86.54;99076.44;5130941;28;20103;-78
2023/06/11 11:04:17;;;;;;;18.48;11.23;;;;;;;26.31;87.16;99071.91;5125189;28;20511;-78
2023/06/11 11:07:07;;;;;;;20.23;12.57;;;;;;;26.44;85.30;99066.84;5120088;28;20047;-79
2023/06/11 11:09:52;;;;;;;16.63;12.60;;;;;;;26.67;84.46;99065.03;5120218;28;20122;-79
2023/06/11 11:12:41;;;;;;;22.75;12.05;;;;;;;26.72;83.92;99067.59;5105740;28;20503;-79
2023/06/11 11:15:25;;;;;;;20.60;12.02;;;;;;;26.85;82.78;99063.31;5123903;28;20061;-78
2023/06/11 11:18:09;;;;;;;18.77;14.02;;;;;;;26.84;82.07;99063.63;5104020;28;20495;-78
2023/06/11 11:20:54;;;;;;;17.88;12.13;;;;;;;27.01;80.85;99073.75;5106529;28;20103;-79
2023/06/11 11:23:38;;;;;;;18.60;12.60;;;;;;;27.38;80.83;99066.44;5116862;28;20061;-80
2023/06/11 11:26:22;;;;;;;23.67;12.90;;;;;;;27.32;81.24;99070.38;5123239;28;20084;-78
2023/06/11 11:29:06;;;;;;;20.02;11.35;;;;;;;27.42;80.66;99067.41;5121005;28;20025;-79
2023/06/11 11:31:50;;;;;;;17.65;12.25;;;;;;;27.65;80.27;99064.75;5103632;28;20507;-80
2023/06/11 11:34:39;;;;;;;18.95;11.85;;;;;;;27.90;79.91;99073.28;5092468;28;20161;-78
2023/06/11 11:37:23;;;;;;;22.92;13.15;;;;;;;27.74;77.56;99073.69;5115926;28;20055;-80
2023/06/11 11:40:08;;;;;;;18.80;12.63;;;;;;;27.56;77.49;99078.16;5130987;28;20049;-79
2023/06/11 11:42:55;;;;;;;17.98;11.35;;;;;;;27.90;80.01;99067.88;5102357;28;20049;-80
2023/06/11 11:45:48;;;;;;;22.50;14.38;;;;;;;27.26;78.07;99061.63;5105050;28;20042;-77
2023/06/11 11:48:32;;;;;;;17.60;13.10;;;;;;;27.57;77.59;99060.09;5103468;28;20038;-79
2023/06/11 11:51:17;;;;;;;21.08;12.70;;;;;;;27.85;77.08;99059.94;5110315;28;20123;-79
2023/06/11 11:54:04;;;;;;;22.60;13.10;;;;;;;27.97;77.32;99070.94;5108358;28;20051;-79
2023/06/11 11:56:57;;;;;;;18.15;12.60;;;;;;;28.36;76.37;99068.56;5113429;28;20085;-79
2023/06/11 11:59:43;;;;;;;20.92;11.57;;;;;;;28.83;76.28;99070.75;5122517;28;20039;-79
2023/06/11 12:02:27;;;;;;;20.75;12.45;;;;;;;29.05;74.88;99058.22;5115197;28;20038;-79
2023/06/11 12:05:15;;;;;;;16.58;12.20;;;;;;;29.07;73.82;99050.59;5121276;28;20496;-78
2023/06/11 12:08:02;;;;;;;16.85;14.02;;;;;;;29.19;73.56;99053.44;5126770;27;20061;-80
2023/06/11 12:10:46;;;;;;;12.68;11.18;;;;;;;29.75;72.53;99063.56;5131581;27;20038;-79
2023/06/11 12:13:30;;;;;;;18.02;11.80;;;;;;;29.99;72.85;99062.22;5132286;27;20411;-79
2023/06/11 12:16:14;;;;;;;17.80;12.48;;;;;;;29.89;71.37;99049.06;5128490;27;20404;-79
2023/06/11 12:18:59;;;;;;;17.63;12.75;;;;;;;29.95;71.82;99049.63;5121746;27;20050;-80
2023/06/11 12:21:45;;;;;;;14.82;11.98;;;;;;;30.30;70.66;99044.91;5122898;27;20042;-79
2023/06/11 12:24:29;;;;;;;19.70;12.02;;;;;;;30.45;70.75;99057.09;5131089;27;20050;-80
2023/06/11 12:27:12;;;;;;;18.27;12.27;;;;;;;30.58;70.08;99057.94;5129320;27;20043;-80
2023/06/11 12:29:57;;;;;;;16.90;13.82;;;;;;;30.44;70.62;99052.78;5130800;27;20070;-78
2023/06/11 12:32:41;;;;;;;17.92;11.50;;;;;;;31.01;70.29;99047.16;5126916;27;20105;-79
2023/06/11 12:35:27;;;;;;;16.23;12.52;;;;;;;31.04;68.55;99054.63;5125359;27;20054;-78
2023/06/11 12:38:13;;;;;;;18.40;12.82;;;;;;;30.84;69.06;99046.16;5116774;27;20550;-77